sensor_id;sensor_type;location;lat;lon;timestamp;pressure;altitude;pressure_sealevel;temperature;humidity
59682;BME280;45548;39.530;-9.118;2022-08-02T07:56:01;100880.41;;;19.16;100.00
59682;BME280;45548;39.530;-9.118;2022-08-02T07:58:27;100882.34;;;19.39;100.00
59682;BME280;45548;39.530;-9.118;2022-08-02T08:00:53;100874.50;;;19.56;100.00
59682;BME280;45548;39.530;-9.118;2022-08-02T08:03:18;100883.56;;;19.78;100.00
59682;BME280;45548;39.530;-9.118;2022-08-02T08:05:44;100884.72;;;19.94;98.50
59682;BME280;45548;39.530;-9.118;2022-08-02T08:08:13;100890.25;;;19.93;97.77
59682;BME280;45548;39.530;-9.118;2022-08-02T08:10:41;100892.69;;;20.06;97.66
59682;BME280;45548;39.530;-9.118;2022-08-02T08:13:07;100897.38;;;20.15;96.63
59682;BME280;45548;39.530;-9.118;2022-08-02T08:15:32;100888.25;;;20.23;95.79
59682;BME280;45548;39.530;-9.118;2022-08-02T08:17:58;100895.78;;;20.26;94.42
59682;BME280;45548;39.530;-9.118;2022-08-02T08:20:23;100897.75;;;20.19;93.85
59682;BME280;45548;39.530;-9.118;2022-08-02T08:22:49;100889.66;;;20.14;94.49
59682;BME280;45548;39.530;-9.118;2022-08-02T08:25:14;100892.56;;;20.12;94.67
59682;BME280;45548;39.530;-9.118;2022-08-02T08:27:48;100887.44;;;20.11;93.52
59682;BME280;45548;39.530;-9.118;2022-08-02T08:30:14;100904.19;;;20.23;93.31
59682;BME280;45548;39.530;-9.118;2022-08-02T08:32:39;100897.81;;;20.36;92.09
59682;BME280;45548;39.530;-9.118;2022-08-02T08:35:05;100896.97;;;20.59;91.38
59682;BME280;45548;39.530;-9.118;2022-08-02T08:37:35;100910.66;;;20.79;90.28
59682;BME280;45548;39.530;-9.118;2022-08-02T08:40:04;100898.00;;;20.69;90.17
59682;BME280;45548;39.530;-9.118;2022-08-02T08:42:30;100902.50;;;20.69;89.71
59682;BME280;45548;39.530;-9.118;2022-08-02T08:44:57;100900.69;;;20.58;90.21
59682;BME280;45548;39.530;-9.118;2022-08-02T08:47:37;100905.31;;;20.51;90.88
59682;BME280;45548;39.530;-9.118;2022-08-02T08:50:10;100903.25;;;20.53;91.18
59682;BME280;45548;39.530;-9.118;2022-08-02T08:52:42;100898.13;;;20.63;89.92
59682;BME280;45548;39.530;-9.118;2022-08-02T08:55:13;100909.72;;;20.85;89.09
59682;BME280;45548;39.530;-9.118;2022-08-02T08:57:40;100902.69;;;20.79;88.15
59682;BME280;45548;39.530;-9.118;2022-08-02T09:00:07;100904.84;;;20.94;87.86
59682;BME280;45548;39.530;-9.118;2022-08-02T09:02:33;100902.25;;;20.99;87.61
59682;BME280;45548;39.530;-9.118;2022-08-02T09:05:00;100905.69;;;21.11;86.59
59682;BME280;45548;39.530;-9.118;2022-08-02T09:07:26;100905.69;;;21.11;86.17
59682;BME280;45548;39.530;-9.118;2022-08-02T09:09:53;100908.75;;;21.20;86.21
59682;BME280;45548;39.530;-9.118;2022-08-02T09:12:20;100900.56;;;21.21;85.26
59682;BME280;45548;39.530;-9.118;2022-08-02T09:14:49;100907.06;;;21.14;86.38
59682;BME280;45548;39.530;-9.118;2022-08-02T09:17:15;100897.28;;;21.03;86.51
59682;BME280;45548;39.530;-9.118;2022-08-02T09:19:40;100905.97;;;20.98;87.11
59682;BME280;45548;39.530;-9.118;2022-08-02T09:22:10;100899.47;;;21.06;86.70
59682;BME280;45548;39.530;-9.118;2022-08-02T09:24:46;100902.63;;;21.19;86.46
59682;BME280;45548;39.530;-9.118;2022-08-02T09:27:17;100899.25;;;21.24;85.31
59682;BME280;45548;39.530;-9.118;2022-08-02T09:29:47;100899.31;;;21.41;84.55
59682;BME280;45548;39.530;-9.118;2022-08-02T09:34:48;100910.28;;;21.61;83.23
59682;BME280;45548;39.530;-9.118;2022-08-02T09:37:28;100907.38;;;21.63;82.74
59682;BME280;45548;39.530;-9.118;2022-08-02T09:39:55;100915.09;;;21.81;81.22
59682;BME280;45548;39.530;-9.118;2022-08-02T09:42:21;100911.25;;;21.72;81.49
59682;BME280;45548;39.530;-9.118;2022-08-02T09:45:00;100919.88;;;21.79;81.49
59682;BME280;45548;39.530;-9.118;2022-08-02T09:47:27;100919.78;;;21.91;81.10
59682;BME280;45548;39.530;-9.118;2022-08-02T09:49:54;100917.88;;;22.08;80.85
59682;BME280;45548;39.530;-9.118;2022-08-02T09:52:27;100922.25;;;22.31;79.43
59682;BME280;45548;39.530;-9.118;2022-08-02T09:54:54;100923.66;;;22.17;79.50
59682;BME280;45548;39.530;-9.118;2022-08-02T09:57:27;100927.53;;;22.09;79.37
59682;BME280;45548;39.530;-9.118;2022-08-02T09:59:57;100935.72;;;22.24;79.40
59682;BME280;45548;39.530;-9.118;2022-08-02T10:02:23;100936.66;;;22.35;77.75
59682;BME280;45548;39.530;-9.118;2022-08-02T10:04:49;100936.66;;;22.35;77.79
59682;BME280;45548;39.530;-9.118;2022-08-02T10:07:15;100942.44;;;22.49;78.08
59682;BME280;45548;39.530;-9.118;2022-08-02T10:09:42;100934.06;;;22.62;77.09
59682;BME280;45548;39.530;-9.118;2022-08-02T10:12:08;100936.25;;;22.65;76.75
59682;BME280;45548;39.530;-9.118;2022-08-02T10:14:34;100939.41;;;22.62;76.76
59682;BME280;45548;39.530;-9.118;2022-08-02T10:17:00;100937.97;;;22.54;77.10
59682;BME280;45548;39.530;-9.118;2022-08-02T10:19:29;100943.63;;;23.02;75.94
59682;BME280;45548;39.530;-9.118;2022-08-02T10:21:56;100937.03;;;23.09;75.24
59682;BME280;45548;39.530;-9.118;2022-08-02T10:24:27;100938.53;;;23.00;74.47
59682;BME280;45548;39.530;-9.118;2022-08-02T10:26:54;100943.66;;;23.07;74.62
59682;BME280;45548;39.530;-9.118;2022-08-02T10:29:23;100943.47;;;23.13;75.14
59682;BME280;45548;39.530;-9.118;2022-08-02T10:31:55;100944.47;;;23.34;73.64
59682;BME280;45548;39.530;-9.118;2022-08-02T10:34:35;100941.41;;;23.80;71.93
59682;BME280;45548;39.530;-9.118;2022-08-02T10:37:03;100944.63;;;23.82;70.49
59682;BME280;45548;39.530;-9.118;2022-08-02T10:39:40;100949.13;;;24.13;70.32
59682;BME280;45548;39.530;-9.118;2022-08-02T10:42:06;100948.66;;;24.32;68.71
59682;BME280;45548;39.530;-9.118;2022-08-02T10:44:32;100948.59;;;24.16;68.68
59682;BME280;45548;39.530;-9.118;2022-08-02T10:49:59;100944.88;;;24.22;68.43
59682;BME280;45548;39.530;-9.118;2022-08-02T10:52:26;100943.06;;;24.91;66.40
59682;BME280;45548;39.530;-9.118;2022-08-02T10:57:24;100945.03;;;25.21;64.50
59682;BME280;45548;39.530;-9.118;2022-08-02T10:59:57;100939.91;;;25.04;64.99
59682;BME280;45548;39.530;-9.118;2022-08-02T11:02:51;100943.88;;;24.86;65.60
59682;BME280;45548;39.530;-9.118;2022-08-02T11:05:31;100942.22;;;24.75;66.22
59682;BME280;45548;39.530;-9.118;2022-08-02T11:07:57;100941.31;;;25.42;64.81
59682;BME280;45548;39.530;-9.118;2022-08-02T11:13:15;100948.00;;;25.96;62.08
59682;BME280;45548;39.530;-9.118;2022-08-02T11:16:00;100941.25;;;26.13;61.44
59682;BME280;45548;39.530;-9.118;2022-08-02T11:21:27;100935.56;;;28.26;54.96
59682;BME280;45548;39.530;-9.118;2022-08-02T11:23:53;100931.38;;;28.82;53.22
59682;BME280;45548;39.530;-9.118;2022-08-02T11:28:59;100933.06;;;30.91;48.56
59682;BME280;45548;39.530;-9.118;2022-08-02T11:31:25;100937.13;;;31.47;45.87
59682;BME280;45548;39.530;-9.118;2022-08-02T11:33:51;100929.25;;;31.82;45.81
59682;BME280;45548;39.530;-9.118;2022-08-02T11:36:18;100932.28;;;32.28;43.53
59682;BME280;45548;39.530;-9.118;2022-08-02T11:38:44;100930.16;;;31.23;45.49
59682;BME280;45548;39.530;-9.118;2022-08-02T11:41:18;100918.25;;;31.24;44.92
59682;BME280;45548;39.530;-9.118;2022-08-02T11:43:44;100923.13;;;31.76;44.60
59682;BME280;45548;39.530;-9.118;2022-08-02T11:46:13;100922.66;;;32.53;43.24
59682;BME280;45548;39.530;-9.118;2022-08-02T11:48:40;100916.22;;;30.94;45.58
59682;BME280;45548;39.530;-9.118;2022-08-02T11:51:16;100915.00;;;31.00;46.04
59682;BME280;45548;39.530;-9.118;2022-08-02T11:53:49;100914.25;;;30.86;45.86
59682;BME280;45548;39.530;-9.118;2022-08-02T11:56:17;100922.41;;;30.58;46.97
59682;BME280;45548;39.530;-9.118;2022-08-02T11:59:04;100919.44;;;32.03;42.99
59682;BME280;45548;39.530;-9.118;2022-08-02T12:01:31;100913.00;;;31.82;43.81
59682;BME280;45548;39.530;-9.118;2022-08-02T12:03:57;100911.97;;;30.15;47.22
59682;BME280;45548;39.530;-9.118;2022-08-02T12:06:26;100907.38;;;30.30;47.09
59682;BME280;45548;39.530;-9.118;2022-08-02T12:09:09;100908.53;;;29.96;48.33
59682;BME280;45548;39.530;-9.118;2022-08-02T12:11:36;100902.91;;;31.42;45.29
59682;BME280;45548;39.530;-9.118;2022-08-02T12:14:02;100907.44;;;32.26;42.80
59682;BME280;45548;39.530;-9.118;2022-08-02T12:16:36;100900.44;;;32.25;42.82
59682;BME280;45548;39.530;-9.118;2022-08-02T12:19:21;100906.06;;;32.55;42.54
59682;BME280;45548;39.530;-9.118;2022-08-02T12:22:18;100897.84;;;31.72;42.94
59682;BME280;45548;39.530;-9.118;2022-08-02T12:24:49;100900.84;;;31.39;45.28
59682;BME280;45548;39.530;-9.118;2022-08-02T12:27:28;100900.38;;;30.79;46.06
59682;BME280;45548;39.530;-9.118;2022-08-02T12:32:30;100896.00;;;30.83;45.56
59682;BME280;45548;39.530;-9.118;2022-08-02T12:37:32;100901.72;;;30.54;46.82
59682;BME280;45548;39.530;-9.118;2022-08-02T12:39:57;100896.47;;;30.35;46.58
59682;BME280;45548;39.530;-9.118;2022-08-02T12:42:24;100900.25;;;30.20;48.53
59682;BME280;45548;39.530;-9.118;2022-08-02T12:44:52;100902.09;;;30.75;46.57
59682;BME280;45548;39.530;-9.118;2022-08-02T12:47:18;100897.94;;;31.13;45.50
59682;BME280;45548;39.530;-9.118;2022-08-02T12:49:46;100895.25;;;31.13;45.56
59682;BME280;45548;39.530;-9.118;2022-08-02T12:52:22;100894.94;;;30.70;46.64
59682;BME280;45548;39.530;-9.118;2022-08-02T12:54:48;100896.69;;;30.75;46.54
59682;BME280;45548;39.530;-9.118;2022-08-02T12:57:16;100889.38;;;30.25;47.38
59682;BME280;45548;39.530;-9.118;2022-08-02T12:59:47;100899.94;;;29.94;48.21
59682;BME280;45548;39.530;-9.118;2022-08-02T13:02:13;100897.34;;;29.75;48.72
59682;BME280;45548;39.530;-9.118;2022-08-02T13:04:40;100884.91;;;29.47;49.30
59682;BME280;45548;39.530;-9.118;2022-08-02T13:07:06;100890.13;;;30.53;46.83
59682;BME280;45548;39.530;-9.118;2022-08-02T13:09:40;100897.63;;;30.56;47.51
59682;BME280;45548;39.530;-9.118;2022-08-02T13:12:07;100893.88;;;30.80;47.96
59682;BME280;45548;39.530;-9.118;2022-08-02T13:14:33;100894.78;;;30.11;47.86
59682;BME280;45548;39.530;-9.118;2022-08-02T13:17:02;100889.28;;;30.16;47.86
59682;BME280;45548;39.530;-9.118;2022-08-02T13:19:27;100890.06;;;30.31;47.20
59682;BME280;45548;39.530;-9.118;2022-08-02T13:21:53;100897.75;;;31.23;46.20
59682;BME280;45548;39.530;-9.118;2022-08-02T13:24:19;100887.53;;;30.48;46.05
59682;BME280;45548;39.530;-9.118;2022-08-02T13:26:44;100882.00;;;30.17;47.66
59682;BME280;45548;39.530;-9.118;2022-08-02T13:29:11;100885.09;;;30.24;48.01
59682;BME280;45548;39.530;-9.118;2022-08-02T13:31:37;100882.78;;;30.17;47.67
59682;BME280;45548;39.530;-9.118;2022-08-02T13:34:07;100879.59;;;29.88;48.28
59682;BME280;45548;39.530;-9.118;2022-08-02T13:36:34;100883.19;;;30.25;47.66
59682;BME280;45548;39.530;-9.118;2022-08-02T13:39:01;100874.75;;;30.40;47.23
59682;BME280;45548;39.530;-9.118;2022-08-02T13:41:29;100879.78;;;30.19;46.88
59682;BME280;45548;39.530;-9.118;2022-08-02T13:43:54;100875.19;;;29.92;49.24
59682;BME280;45548;39.530;-9.118;2022-08-02T13:46:20;100876.72;;;30.76;46.95
59682;BME280;45548;39.530;-9.118;2022-08-02T13:48:45;100879.03;;;30.55;47.02
59682;BME280;45548;39.530;-9.118;2022-08-02T13:51:11;100881.53;;;31.55;44.51
59682;BME280;45548;39.530;-9.118;2022-08-02T13:53:38;100877.63;;;32.00;43.25
59682;BME280;45548;39.530;-9.118;2022-08-02T13:56:03;100878.72;;;31.91;44.08
59682;BME280;45548;39.530;-9.118;2022-08-02T13:58:29;100861.81;;;32.42;42.31
59682;BME280;45548;39.530;-9.118;2022-08-02T14:00:54;100867.63;;;33.39;41.15
59682;BME280;45548;39.530;-9.118;2022-08-02T14:03:20;100863.81;;;33.40;40.63
59682;BME280;45548;39.530;-9.118;2022-08-02T14:05:46;100866.41;;;33.66;40.45
59682;BME280;45548;39.530;-9.118;2022-08-02T14:08:11;100863.75;;;33.96;39.77
59682;BME280;45548;39.530;-9.118;2022-08-02T14:10:37;100862.03;;;34.21;38.79
59682;BME280;45548;39.530;-9.118;2022-08-02T14:13:03;100864.34;;;34.73;38.69
59682;BME280;45548;39.530;-9.118;2022-08-02T14:15:28;100865.34;;;34.47;37.89
59682;BME280;45548;39.530;-9.118;2022-08-02T14:17:54;100864.34;;;34.31;38.39
59682;BME280;45548;39.530;-9.118;2022-08-02T14:20:19;100862.44;;;34.02;38.65
59682;BME280;45548;39.530;-9.118;2022-08-02T14:22:45;100865.19;;;33.93;38.74
59682;BME280;45548;39.530;-9.118;2022-08-02T14:25:10;100858.19;;;33.92;38.49
59682;BME280;45548;39.530;-9.118;2022-08-02T14:27:36;100857.88;;;33.94;39.04
59682;BME280;45548;39.530;-9.118;2022-08-02T14:30:02;100856.44;;;33.88;38.93
59682;BME280;45548;39.530;-9.118;2022-08-02T14:32:28;100856.59;;;34.21;39.14
59682;BME280;45548;39.530;-9.118;2022-08-02T14:34:53;100851.69;;;34.35;38.24
59682;BME280;45548;39.530;-9.118;2022-08-02T14:37:19;100848.91;;;34.23;37.96
59682;BME280;45548;39.530;-9.118;2022-08-02T14:39:45;100859.47;;;33.86;38.48
59682;BME280;45548;39.530;-9.118;2022-08-02T14:42:10;100854.63;;;32.98;39.84
59682;BME280;45548;39.530;-9.118;2022-08-02T14:44:36;100855.75;;;32.71;40.83
59682;BME280;45548;39.530;-9.118;2022-08-02T14:47:01;100853.69;;;32.68;41.36
59682;BME280;45548;39.530;-9.118;2022-08-02T14:49:27;100854.00;;;32.41;41.58
59682;BME280;45548;39.530;-9.118;2022-08-02T14:51:53;100856.06;;;31.78;42.76
59682;BME280;45548;39.530;-9.118;2022-08-02T14:54:19;100856.13;;;31.24;43.86
59682;BME280;45548;39.530;-9.118;2022-08-02T14:56:45;100858.09;;;30.38;46.08
59682;BME280;45548;39.530;-9.118;2022-08-02T14:59:11;100845.69;;;30.51;46.59
59682;BME280;45548;39.530;-9.118;2022-08-02T15:01:36;100848.81;;;31.25;44.85
59682;BME280;45548;39.530;-9.118;2022-08-02T15:04:02;100851.50;;;31.03;44.93
59682;BME280;45548;39.530;-9.118;2022-08-02T15:06:28;100845.84;;;30.90;45.02
59682;BME280;45548;39.530;-9.118;2022-08-02T15:08:58;100836.16;;;30.89;45.28
59682;BME280;45548;39.530;-9.118;2022-08-02T15:11:23;100829.78;;;30.49;45.92
59682;BME280;45548;39.530;-9.118;2022-08-02T15:13:49;100824.78;;;30.56;46.25
59682;BME280;45548;39.530;-9.118;2022-08-02T15:16:15;100828.63;;;30.78;46.48
59682;BME280;45548;39.530;-9.118;2022-08-02T15:18:40;100820.28;;;30.15;47.24
59682;BME280;45548;39.530;-9.118;2022-08-02T15:21:06;100824.59;;;29.75;48.23
59682;BME280;45548;39.530;-9.118;2022-08-02T15:23:31;100824.59;;;29.29;49.53
59682;BME280;45548;39.530;-9.118;2022-08-02T15:25:57;100818.13;;;28.97;50.67
59682;BME280;45548;39.530;-9.118;2022-08-02T15:28:22;100813.41;;;28.89;51.51
59682;BME280;45548;39.530;-9.118;2022-08-02T15:30:49;100807.69;;;29.09;50.80
59682;BME280;45548;39.530;-9.118;2022-08-02T15:33:15;100804.38;;;28.99;51.19
59682;BME280;45548;39.530;-9.118;2022-08-02T15:35:40;100802.41;;;28.53;52.55
59682;BME280;45548;39.530;-9.118;2022-08-02T15:38:06;100799.13;;;27.94;53.53
59682;BME280;45548;39.530;-9.118;2022-08-02T15:40:31;100797.47;;;28.17;53.14
59682;BME280;45548;39.530;-9.118;2022-08-02T15:42:57;100807.22;;;27.89;53.92
59682;BME280;45548;39.530;-9.118;2022-08-02T15:45:23;100803.69;;;27.70;54.96
59682;BME280;45548;39.530;-9.118;2022-08-02T15:47:49;100802.81;;;27.51;54.52
59682;BME280;45548;39.530;-9.118;2022-08-02T15:50:15;100803.19;;;27.92;53.68
59682;BME280;45548;39.530;-9.118;2022-08-02T15:52:41;100797.44;;;28.41;53.36
59682;BME280;45548;39.530;-9.118;2022-08-02T15:55:06;100798.19;;;28.23;53.33
59682;BME280;45548;39.530;-9.118;2022-08-02T15:57:32;100798.75;;;28.01;54.22
59682;BME280;45548;39.530;-9.118;2022-08-02T15:59:57;100792.66;;;27.95;53.98
59682;BME280;45548;39.530;-9.118;2022-08-02T16:02:23;100812.06;;;27.63;55.06
59682;BME280;45548;39.530;-9.118;2022-08-02T16:04:48;100812.25;;;27.19;57.12
59682;BME280;45548;39.530;-9.118;2022-08-02T16:07:14;100810.00;;;26.58;60.55
59682;BME280;45548;39.530;-9.118;2022-08-02T16:09:40;100801.91;;;26.13;62.32
59682;BME280;45548;39.530;-9.118;2022-08-02T16:12:06;100798.38;;;26.28;62.76
59682;BME280;45548;39.530;-9.118;2022-08-02T16:14:34;100805.25;;;26.45;61.25
59682;BME280;45548;39.530;-9.118;2022-08-02T16:17:00;100798.84;;;26.35;60.45
59682;BME280;45548;39.530;-9.118;2022-08-02T16:19:26;100805.81;;;26.36;60.58
59682;BME280;45548;39.530;-9.118;2022-08-02T16:21:52;100795.09;;;26.36;60.24
59682;BME280;45548;39.530;-9.118;2022-08-02T16:24:18;100795.03;;;25.97;60.49
59682;BME280;45548;39.530;-9.118;2022-08-02T16:26:43;100792.16;;;25.63;61.80
59682;BME280;45548;39.530;-9.118;2022-08-02T16:29:09;100797.59;;;25.22;63.10
59682;BME280;45548;39.530;-9.118;2022-08-02T16:31:35;100798.94;;;25.15;64.85
59682;BME280;45548;39.530;-9.118;2022-08-02T16:34:00;100798.91;;;25.20;63.58
59682;BME280;45548;39.530;-9.118;2022-08-02T16:36:26;100796.00;;;25.21;63.25
59682;BME280;45548;39.530;-9.118;2022-08-02T16:38:53;100796.69;;;25.73;61.43
59682;BME280;45548;39.530;-9.118;2022-08-02T16:41:19;100802.84;;;25.78;60.96
59682;BME280;45548;39.530;-9.118;2022-08-02T16:43:44;100800.47;;;25.62;61.31
59682;BME280;45548;39.530;-9.118;2022-08-02T16:46:10;100796.47;;;25.54;61.94
59682;BME280;45548;39.530;-9.118;2022-08-02T16:48:36;100800.75;;;25.45;62.34
59682;BME280;45548;39.530;-9.118;2022-08-02T16:51:01;100793.28;;;25.31;63.77
59682;BME280;45548;39.530;-9.118;2022-08-02T16:53:27;100793.31;;;25.16;63.91
59682;BME280;45548;39.530;-9.118;2022-08-02T16:55:52;100796.50;;;24.88;63.99
59682;BME280;45548;39.530;-9.118;2022-08-02T16:58:18;100790.00;;;24.43;65.57
59682;BME280;45548;39.530;-9.118;2022-08-02T17:00:43;100788.41;;;24.42;66.64
59682;BME280;45548;39.530;-9.118;2022-08-02T17:03:09;100789.75;;;24.44;66.43
59682;BME280;45548;39.530;-9.118;2022-08-02T17:05:34;100787.88;;;24.35;66.34
59682;BME280;45548;39.530;-9.118;2022-08-02T17:08:05;100788.78;;;23.98;68.19
59682;BME280;45548;39.530;-9.118;2022-08-02T17:10:30;100789.81;;;23.87;68.79
59682;BME280;45548;39.530;-9.118;2022-08-02T17:13:06;100792.97;;;23.84;68.77
59682;BME280;45548;39.530;-9.118;2022-08-02T17:15:31;100791.94;;;23.90;68.61
59682;BME280;45548;39.530;-9.118;2022-08-02T17:17:57;100791.44;;;23.93;68.35
59682;BME280;45548;39.530;-9.118;2022-08-02T17:20:24;100790.03;;;23.80;68.69
59682;BME280;45548;39.530;-9.118;2022-08-02T17:22:51;100793.75;;;23.74;69.55
59682;BME280;45548;39.530;-9.118;2022-08-02T17:25:16;100789.44;;;23.68;69.96
59682;BME280;45548;39.530;-9.118;2022-08-02T17:27:42;100791.22;;;23.57;70.27
59682;BME280;45548;39.530;-9.118;2022-08-02T17:30:09;100788.00;;;23.55;70.35
59682;BME280;45548;39.530;-9.118;2022-08-02T17:32:35;100786.00;;;23.73;69.97
59682;BME280;45548;39.530;-9.118;2022-08-02T17:35:01;100790.13;;;23.53;69.88
59682;BME280;45548;39.530;-9.118;2022-08-02T17:37:27;100780.66;;;23.35;70.20
59682;BME280;45548;39.530;-9.118;2022-08-02T17:39:53;100789.84;;;23.12;70.85
59682;BME280;45548;39.530;-9.118;2022-08-02T17:42:19;100783.13;;;23.05;71.29
59682;BME280;45548;39.530;-9.118;2022-08-02T17:44:46;100780.47;;;23.05;71.28
59682;BME280;45548;39.530;-9.118;2022-08-02T17:47:12;100784.22;;;23.09;71.65
59682;BME280;45548;39.530;-9.118;2022-08-02T17:49:37;100774.31;;;23.04;71.80
59682;BME280;45548;39.530;-9.118;2022-08-02T17:52:03;100775.34;;;22.98;72.51
59682;BME280;45548;39.530;-9.118;2022-08-02T17:54:29;100773.88;;;22.85;73.46
59682;BME280;45548;39.530;-9.118;2022-08-02T17:56:54;100773.00;;;22.80;73.81
59682;BME280;45548;39.530;-9.118;2022-08-02T17:59:22;100779.66;;;22.77;73.76
59682;BME280;45548;39.530;-9.118;2022-08-02T18:01:54;100780.88;;;22.65;74.28
59682;BME280;45548;39.530;-9.118;2022-08-02T18:04:21;100785.59;;;22.57;74.49
59682;BME280;45548;39.530;-9.118;2022-08-02T18:06:49;100785.09;;;22.60;75.06
59682;BME280;45548;39.530;-9.118;2022-08-02T18:09:15;100781.69;;;22.65;74.26
59682;BME280;45548;39.530;-9.118;2022-08-02T18:11:41;100788.34;;;22.63;75.23
59682;BME280;45548;39.530;-9.118;2022-08-02T18:14:11;100788.22;;;22.52;75.81
59682;BME280;45548;39.530;-9.118;2022-08-02T18:16:41;100789.16;;;22.41;75.76
59682;BME280;45548;39.530;-9.118;2022-08-02T18:19:07;100773.69;;;22.38;75.58
59682;BME280;45548;39.530;-9.118;2022-08-02T18:21:32;100782.94;;;22.30;76.01
59682;BME280;45548;39.530;-9.118;2022-08-02T18:23:58;100781.56;;;22.28;76.15
59682;BME280;45548;39.530;-9.118;2022-08-02T18:26:24;100780.34;;;22.36;76.21
59682;BME280;45548;39.530;-9.118;2022-08-02T18:28:49;100780.88;;;22.38;76.24
59682;BME280;45548;39.530;-9.118;2022-08-02T18:31:15;100786.69;;;22.34;76.15
59682;BME280;45548;39.530;-9.118;2022-08-02T18:33:41;100784.00;;;22.29;76.68
59682;BME280;45548;39.530;-9.118;2022-08-02T18:36:11;100784.22;;;22.28;76.75
59682;BME280;45548;39.530;-9.118;2022-08-02T18:38:37;100778.88;;;22.28;76.85
59682;BME280;45548;39.530;-9.118;2022-08-02T18:41:04;100771.94;;;22.22;76.57
59682;BME280;45548;39.530;-9.118;2022-08-02T18:43:32;100780.84;;;22.11;77.08
59682;BME280;45548;39.530;-9.118;2022-08-02T18:45:58;100771.94;;;22.05;77.57
59682;BME280;45548;39.530;-9.118;2022-08-02T18:48:26;100771.25;;;22.10;77.27
59682;BME280;45548;39.530;-9.118;2022-08-02T18:50:51;100774.28;;;22.01;77.61
59682;BME280;45548;39.530;-9.118;2022-08-02T18:53:17;100774.25;;;21.96;77.87
59682;BME280;45548;39.530;-9.118;2022-08-02T18:55:43;100779.44;;;21.86;79.26
59682;BME280;45548;39.530;-9.118;2022-08-02T18:58:09;100768.84;;;21.69;79.97
59682;BME280;45548;39.530;-9.118;2022-08-02T19:00:35;100771.25;;;21.71;80.08
59682;BME280;45548;39.530;-9.118;2022-08-02T19:03:01;100769.16;;;21.73;80.17
59682;BME280;45548;39.530;-9.118;2022-08-02T19:05:26;100769.16;;;21.73;79.95
59682;BME280;45548;39.530;-9.118;2022-08-02T19:07:52;100781.91;;;21.71;79.95
59682;BME280;45548;39.530;-9.118;2022-08-02T19:10:17;100774.44;;;21.68;80.58
59682;BME280;45548;39.530;-9.118;2022-08-02T19:12:43;100772.78;;;21.67;80.71
59682;BME280;45548;39.530;-9.118;2022-08-02T19:15:09;100774.34;;;21.63;81.25
59682;BME280;45548;39.530;-9.118;2022-08-02T19:17:37;100777.91;;;21.51;81.74
59682;BME280;45548;39.530;-9.118;2022-08-02T19:20:03;100775.97;;;21.47;82.33
59682;BME280;45548;39.530;-9.118;2022-08-02T19:22:29;100772.03;;;21.49;82.55
59682;BME280;45548;39.530;-9.118;2022-08-02T19:24:55;100778.31;;;21.43;82.44
59682;BME280;45548;39.530;-9.118;2022-08-02T19:27:21;100770.97;;;21.50;82.16
59682;BME280;45548;39.530;-9.118;2022-08-02T19:29:47;100765.91;;;21.49;82.34
59682;BME280;45548;39.530;-9.118;2022-08-02T19:32:13;100763.72;;;21.46;82.51
59682;BME280;45548;39.530;-9.118;2022-08-02T19:34:38;100766.97;;;21.48;82.62
59682;BME280;45548;39.530;-9.118;2022-08-02T19:37:04;100758.09;;;21.42;82.77
59682;BME280;45548;39.530;-9.118;2022-08-02T19:39:29;100760.19;;;21.40;82.69
59682;BME280;45548;39.530;-9.118;2022-08-02T19:41:55;100768.59;;;21.32;83.23
59682;BME280;45548;39.530;-9.118;2022-08-02T19:44:21;100765.91;;;21.32;83.46
59682;BME280;45548;39.530;-9.118;2022-08-02T19:46:46;100762.59;;;21.25;83.95
59682;BME280;45548;39.530;-9.118;2022-08-02T19:49:12;100767.28;;;21.18;84.56
59682;BME280;45548;39.530;-9.118;2022-08-02T19:51:37;100764.63;;;21.18;84.81
59682;BME280;45548;39.530;-9.118;2022-08-02T19:54:03;100766.81;;;21.21;84.31
59682;BME280;45548;39.530;-9.118;2022-08-02T19:56:29;100761.97;;;21.18;84.80
59682;BME280;45548;39.530;-9.118;2022-08-02T19:58:55;100765.84;;;21.10;84.87
59682;BME280;45548;39.530;-9.118;2022-08-02T20:01:22;100763.34;;;21.04;84.74
59682;BME280;45548;39.530;-9.118;2022-08-02T20:03:48;100758.56;;;21.06;85.35
59682;BME280;45548;39.530;-9.118;2022-08-02T20:06:14;100768.75;;;21.09;84.58
59682;BME280;45548;39.530;-9.118;2022-08-02T20:08:39;100759.78;;;20.98;84.45
59682;BME280;45548;39.530;-9.118;2022-08-02T20:11:05;100759.78;;;20.98;84.26
59682;BME280;45548;39.530;-9.118;2022-08-02T20:13:31;100770.16;;;20.99;84.71
59682;BME280;45548;39.530;-9.118;2022-08-02T20:15:57;100765.44;;;21.02;84.88
59682;BME280;45548;39.530;-9.118;2022-08-02T20:18:23;100766.16;;;20.80;83.73
59682;BME280;45548;39.530;-9.118;2022-08-02T20:20:52;100768.31;;;20.83;83.71
59682;BME280;45548;39.530;-9.118;2022-08-02T20:23:18;100764.84;;;20.83;83.80
59682;BME280;45548;39.530;-9.118;2022-08-02T20:25:44;100755.03;;;20.83;83.87
59682;BME280;45548;39.530;-9.118;2022-08-02T20:28:11;100762.19;;;20.83;83.87
59682;BME280;45548;39.530;-9.118;2022-08-02T20:30:37;100762.75;;;20.85;83.70
59682;BME280;45548;39.530;-9.118;2022-08-02T20:33:04;100766.81;;;20.87;83.49
59682;BME280;45548;39.530;-9.118;2022-08-02T20:35:29;100767.34;;;20.89;82.87
59682;BME280;45548;39.530;-9.118;2022-08-02T20:37:55;100772.97;;;20.93;83.12
59682;BME280;45548;39.530;-9.118;2022-08-02T20:40:21;100775.41;;;20.94;82.92
59682;BME280;45548;39.530;-9.118;2022-08-02T20:42:48;100767.59;;;20.88;83.12
59682;BME280;45548;39.530;-9.118;2022-08-02T20:45:15;100772.28;;;20.81;83.25
59682;BME280;45548;39.530;-9.118;2022-08-02T20:47:40;100774.03;;;20.75;83.29
59682;BME280;45548;39.530;-9.118;2022-08-02T20:50:09;100777.81;;;20.79;83.61
59682;BME280;45548;39.530;-9.118;2022-08-02T20:52:53;100782.09;;;20.80;82.90
59682;BME280;45548;39.530;-9.118;2022-08-02T20:55:19;100785.56;;;20.81;83.04
59682;BME280;45548;39.530;-9.118;2022-08-02T20:57:45;100789.25;;;20.80;82.97